sensor_id;sensor_type;location;lat;lon;timestamp;temperature;humidity
71175;DHT22;58876;51.994;4.472;2022-07-09T00:00:36;18.72;79.63
71175;DHT22;58876;51.994;4.472;2022-07-09T00:03:02;18.70;79.77
71175;DHT22;58876;51.994;4.472;2022-07-09T00:05:28;18.72;79.76
71175;DHT22;58876;51.994;4.472;2022-07-09T00:07:54;18.67;80.02
71175;DHT22;58876;51.994;4.472;2022-07-09T00:10:20;18.57;80.87
71175;DHT22;58876;51.994;4.472;2022-07-09T00:12:45;18.56;80.74
71175;DHT22;58876;51.994;4.472;2022-07-09T00:15:12;18.43;81.45
71175;DHT22;58876;51.994;4.472;2022-07-09T00:17:38;18.34;81.59
71175;DHT22;58876;51.994;4.472;2022-07-09T00:20:05;18.22;82.53
71175;DHT22;58876;51.994;4.472;2022-07-09T00:22:34;18.02;83.20
71175;DHT22;58876;51.994;4.472;2022-07-09T00:25:01;17.93;83.64
71175;DHT22;58876;51.994;4.472;2022-07-09T00:27:27;17.95;83.82
71175;DHT22;58876;51.994;4.472;2022-07-09T00:29:52;17.93;83.60
71175;DHT22;58876;51.994;4.472;2022-07-09T00:32:18;17.93;83.66
71175;DHT22;58876;51.994;4.472;2022-07-09T00:34:44;17.98;83.60
71175;DHT22;58876;51.994;4.472;2022-07-09T00:37:10;17.86;83.60
71175;DHT22;58876;51.994;4.472;2022-07-09T00:39:36;17.81;83.95
71175;DHT22;58876;51.994;4.472;2022-07-09T00:42:03;17.78;84.00
71175;DHT22;58876;51.994;4.472;2022-07-09T00:44:29;17.75;83.96
71175;DHT22;58876;51.994;4.472;2022-07-09T00:46:55;17.86;83.55
71175;DHT22;58876;51.994;4.472;2022-07-09T00:49:20;17.85;83.31
71175;DHT22;58876;51.994;4.472;2022-07-09T00:51:46;17.74;84.23
71175;DHT22;58876;51.994;4.472;2022-07-09T00:54:14;17.83;83.80
71175;DHT22;58876;51.994;4.472;2022-07-09T00:56:40;17.86;83.44
71175;DHT22;58876;51.994;4.472;2022-07-09T00:59:06;17.93;82.75
71175;DHT22;58876;51.994;4.472;2022-07-09T01:01:36;18.02;82.66
71175;DHT22;58876;51.994;4.472;2022-07-09T01:04:02;18.06;82.30
71175;DHT22;58876;51.994;4.472;2022-07-09T01:06:29;17.98;82.71
71175;DHT22;58876;51.994;4.472;2022-07-09T01:08:54;17.99;82.56
71175;DHT22;58876;51.994;4.472;2022-07-09T01:11:20;17.93;82.90
71175;DHT22;58876;51.994;4.472;2022-07-09T01:13:46;17.99;82.53
71175;DHT22;58876;51.994;4.472;2022-07-09T01:16:13;17.99;82.67
71175;DHT22;58876;51.994;4.472;2022-07-09T01:18:39;17.85;83.22
71175;DHT22;58876;51.994;4.472;2022-07-09T01:21:04;17.75;83.91
71175;DHT22;58876;51.994;4.472;2022-07-09T01:23:31;17.72;83.88
71175;DHT22;58876;51.994;4.472;2022-07-09T01:25:58;17.86;83.32
71175;DHT22;58876;51.994;4.472;2022-07-09T01:28:23;17.92;82.74
71175;DHT22;58876;51.994;4.472;2022-07-09T01:30:49;17.91;82.87
71175;DHT22;58876;51.994;4.472;2022-07-09T01:33:14;17.82;83.18
71175;DHT22;58876;51.994;4.472;2022-07-09T01:35:40;17.83;83.33
71175;DHT22;58876;51.994;4.472;2022-07-09T01:38:05;17.98;83.05
71175;DHT22;58876;51.994;4.472;2022-07-09T01:40:31;18.03;82.85
71175;DHT22;58876;51.994;4.472;2022-07-09T01:42:57;18.09;82.66
71175;DHT22;58876;51.994;4.472;2022-07-09T01:45:23;18.14;82.37
71175;DHT22;58876;51.994;4.472;2022-07-09T01:47:48;18.14;82.32
71175;DHT22;58876;51.994;4.472;2022-07-09T01:50:13;18.16;81.99
71175;DHT22;58876;51.994;4.472;2022-07-09T01:52:39;18.20;82.06
71175;DHT22;58876;51.994;4.472;2022-07-09T01:55:05;18.14;82.51
71175;DHT22;58876;51.994;4.472;2022-07-09T01:57:31;18.14;82.25
71175;DHT22;58876;51.994;4.472;2022-07-09T01:59:56;18.12;82.44
71175;DHT22;58876;51.994;4.472;2022-07-09T02:02:21;18.10;82.45
71175;DHT22;58876;51.994;4.472;2022-07-09T02:04:47;18.08;82.92
71175;DHT22;58876;51.994;4.472;2022-07-09T02:07:13;18.01;83.39
71175;DHT22;58876;51.994;4.472;2022-07-09T02:09:39;17.91;83.78
71175;DHT22;58876;51.994;4.472;2022-07-09T02:12:06;17.93;83.43
71175;DHT22;58876;51.994;4.472;2022-07-09T02:14:31;17.99;83.15
71175;DHT22;58876;51.994;4.472;2022-07-09T02:16:57;18.03;82.67
71175;DHT22;58876;51.994;4.472;2022-07-09T02:19:22;18.01;82.32
71175;DHT22;58876;51.994;4.472;2022-07-09T02:21:47;18.03;82.67
71175;DHT22;58876;51.994;4.472;2022-07-09T02:24:15;17.85;83.18
71175;DHT22;58876;51.994;4.472;2022-07-09T02:26:41;17.79;83.48
71175;DHT22;58876;51.994;4.472;2022-07-09T02:29:07;17.79;83.33
71175;DHT22;58876;51.994;4.472;2022-07-09T02:31:32;17.77;83.25
71175;DHT22;58876;51.994;4.472;2022-07-09T02:33:58;17.82;82.87
71175;DHT22;58876;51.994;4.472;2022-07-09T02:36:23;17.91;82.57
71175;DHT22;58876;51.994;4.472;2022-07-09T02:38:49;17.96;81.56
71175;DHT22;58876;51.994;4.472;2022-07-09T02:41:14;18.06;81.46
71175;DHT22;58876;51.994;4.472;2022-07-09T02:43:40;18.16;80.49
71175;DHT22;58876;51.994;4.472;2022-07-09T02:46:11;18.23;80.21
71175;DHT22;58876;51.994;4.472;2022-07-09T02:48:37;18.34;79.82
71175;DHT22;58876;51.994;4.472;2022-07-09T02:51:03;18.36;80.17
71175;DHT22;58876;51.994;4.472;2022-07-09T02:53:29;18.41;80.19
71175;DHT22;58876;51.994;4.472;2022-07-09T02:55:54;18.41;80.28
71175;DHT22;58876;51.994;4.472;2022-07-09T02:58:20;18.51;79.99
71175;DHT22;58876;51.994;4.472;2022-07-09T03:00:45;18.53;79.84
71175;DHT22;58876;51.994;4.472;2022-07-09T03:03:11;18.60;79.84
71175;DHT22;58876;51.994;4.472;2022-07-09T03:05:36;18.67;79.27
71175;DHT22;58876;51.994;4.472;2022-07-09T03:08:02;18.70;79.36
71175;DHT22;58876;51.994;4.472;2022-07-09T03:10:28;18.68;79.51
71175;DHT22;58876;51.994;4.472;2022-07-09T03:12:54;18.70;79.15
71175;DHT22;58876;51.994;4.472;2022-07-09T03:15:19;18.77;78.37
71175;DHT22;58876;51.994;4.472;2022-07-09T03:17:46;18.91;78.66
71175;DHT22;58876;51.994;4.472;2022-07-09T03:20:13;18.98;77.83
71175;DHT22;58876;51.994;4.472;2022-07-09T03:22:39;18.91;78.77
71175;DHT22;58876;51.994;4.472;2022-07-09T03:25:05;18.97;78.68
71175;DHT22;58876;51.994;4.472;2022-07-09T03:27:32;18.95;78.85
71175;DHT22;58876;51.994;4.472;2022-07-09T03:29:58;19.01;78.67
71175;DHT22;58876;51.994;4.472;2022-07-09T03:32:25;18.88;79.40
71175;DHT22;58876;51.994;4.472;2022-07-09T03:34:50;18.88;79.60
71175;DHT22;58876;51.994;4.472;2022-07-09T03:37:18;18.88;79.61
71175;DHT22;58876;51.994;4.472;2022-07-09T03:39:43;18.94;79.63
71175;DHT22;58876;51.994;4.472;2022-07-09T03:42:11;19.01;79.45
71175;DHT22;58876;51.994;4.472;2022-07-09T03:44:37;18.92;79.77
71175;DHT22;58876;51.994;4.472;2022-07-09T03:47:03;18.94;79.78
71175;DHT22;58876;51.994;4.472;2022-07-09T03:49:29;18.98;79.90
71175;DHT22;58876;51.994;4.472;2022-07-09T03:51:55;19.05;79.11
71175;DHT22;58876;51.994;4.472;2022-07-09T03:54:21;19.09;79.31
71175;DHT22;58876;51.994;4.472;2022-07-09T03:56:46;18.95;79.75
71175;DHT22;58876;51.994;4.472;2022-07-09T03:59:12;18.98;79.39
71175;DHT22;58876;51.994;4.472;2022-07-09T04:01:37;19.01;79.78
71175;DHT22;58876;51.994;4.472;2022-07-09T04:04:04;19.04;79.85
71175;DHT22;58876;51.994;4.472;2022-07-09T04:06:30;19.12;79.47
71175;DHT22;58876;51.994;4.472;2022-07-09T04:08:55;19.19;78.96
71175;DHT22;58876;51.994;4.472;2022-07-09T04:11:21;19.19;78.83
71175;DHT22;58876;51.994;4.472;2022-07-09T04:13:48;19.22;79.19
71175;DHT22;58876;51.994;4.472;2022-07-09T04:16:15;19.14;79.63
71175;DHT22;58876;51.994;4.472;2022-07-09T04:18:41;18.99;80.19
71175;DHT22;58876;51.994;4.472;2022-07-09T04:21:09;18.99;80.30
71175;DHT22;58876;51.994;4.472;2022-07-09T04:23:35;19.11;79.81
71175;DHT22;58876;51.994;4.472;2022-07-09T04:26:01;19.22;78.68
71175;DHT22;58876;51.994;4.472;2022-07-09T04:28:26;19.23;78.35
71175;DHT22;58876;51.994;4.472;2022-07-09T04:30:52;19.28;78.44
71175;DHT22;58876;51.994;4.472;2022-07-09T04:33:18;19.28;78.63
71175;DHT22;58876;51.994;4.472;2022-07-09T04:35:44;19.20;77.64
71175;DHT22;58876;51.994;4.472;2022-07-09T04:38:11;19.23;78.01
71175;DHT22;58876;51.994;4.472;2022-07-09T04:40:37;19.25;77.98
71175;DHT22;58876;51.994;4.472;2022-07-09T04:43:04;19.29;78.28
71175;DHT22;58876;51.994;4.472;2022-07-09T04:45:30;19.26;78.33
71175;DHT22;58876;51.994;4.472;2022-07-09T04:47:58;19.22;78.54
71175;DHT22;58876;51.994;4.472;2022-07-09T04:50:26;19.22;78.51
71175;DHT22;58876;51.994;4.472;2022-07-09T04:52:53;19.28;78.28
71175;DHT22;58876;51.994;4.472;2022-07-09T04:55:19;19.29;78.08
71175;DHT22;58876;51.994;4.472;2022-07-09T04:57:46;19.35;77.87
71175;DHT22;58876;51.994;4.472;2022-07-09T05:00:12;19.42;77.73
71175;DHT22;58876;51.994;4.472;2022-07-09T05:02:39;19.48;77.22
71175;DHT22;58876;51.994;4.472;2022-07-09T05:05:05;19.59;77.54
71175;DHT22;58876;51.994;4.472;2022-07-09T05:07:32;19.57;77.55
71175;DHT22;58876;51.994;4.472;2022-07-09T05:09:59;19.62;77.63
71175;DHT22;58876;51.994;4.472;2022-07-09T05:12:25;19.66;77.71
71175;DHT22;58876;51.994;4.472;2022-07-09T05:14:51;19.77;77.50
71175;DHT22;58876;51.994;4.472;2022-07-09T05:17:17;19.76;77.23
71175;DHT22;58876;51.994;4.472;2022-07-09T05:19:42;19.62;77.74
71175;DHT22;58876;51.994;4.472;2022-07-09T05:22:08;19.62;77.74
71175;DHT22;58876;51.994;4.472;2022-07-09T05:24:33;19.66;77.81
71175;DHT22;58876;51.994;4.472;2022-07-09T05:26:59;19.74;77.47
71175;DHT22;58876;51.994;4.472;2022-07-09T05:29:24;19.80;77.23
71175;DHT22;58876;51.994;4.472;2022-07-09T05:31:52;19.90;77.00
71175;DHT22;58876;51.994;4.472;2022-07-09T05:34:17;19.98;76.72
71175;DHT22;58876;51.994;4.472;2022-07-09T05:36:43;20.06;76.45
71175;DHT22;58876;51.994;4.472;2022-07-09T05:39:08;20.06;75.53
71175;DHT22;58876;51.994;4.472;2022-07-09T05:41:34;20.20;75.91
71175;DHT22;58876;51.994;4.472;2022-07-09T05:43:59;20.22;74.89
71175;DHT22;58876;51.994;4.472;2022-07-09T05:46:29;20.28;75.44
71175;DHT22;58876;51.994;4.472;2022-07-09T05:48:57;20.25;73.81
71175;DHT22;58876;51.994;4.472;2022-07-09T05:51:23;20.14;74.79
71175;DHT22;58876;51.994;4.472;2022-07-09T05:53:48;20.08;74.90
71175;DHT22;58876;51.994;4.472;2022-07-09T05:56:14;20.01;75.20
71175;DHT22;58876;51.994;4.472;2022-07-09T05:58:39;20.16;74.56
71175;DHT22;58876;51.994;4.472;2022-07-09T06:01:06;20.31;74.51
71175;DHT22;58876;51.994;4.472;2022-07-09T06:03:31;20.48;74.06
71175;DHT22;58876;51.994;4.472;2022-07-09T06:05:57;20.45;74.20
71175;DHT22;58876;51.994;4.472;2022-07-09T06:08:23;20.56;73.79
71175;DHT22;58876;51.994;4.472;2022-07-09T06:10:50;20.62;73.39
71175;DHT22;58876;51.994;4.472;2022-07-09T06:13:15;20.64;73.02
71175;DHT22;58876;51.994;4.472;2022-07-09T06:15:41;20.68;73.65
71175;DHT22;58876;51.994;4.472;2022-07-09T06:18:06;20.61;73.32
71175;DHT22;58876;51.994;4.472;2022-07-09T06:20:32;20.52;73.56
71175;DHT22;58876;51.994;4.472;2022-07-09T06:22:58;20.45;72.96
71175;DHT22;58876;51.994;4.472;2022-07-09T06:25:23;20.59;73.06
71175;DHT22;58876;51.994;4.472;2022-07-09T06:27:49;20.62;72.31
71175;DHT22;58876;51.994;4.472;2022-07-09T06:30:14;20.45;72.32
71175;DHT22;58876;51.994;4.472;2022-07-09T06:32:40;20.53;72.52
71175;DHT22;58876;51.994;4.472;2022-07-09T06:35:06;20.64;71.63
71175;DHT22;58876;51.994;4.472;2022-07-09T06:37:31;20.77;71.23
71175;DHT22;58876;51.994;4.472;2022-07-09T06:39:58;20.71;71.39
71175;DHT22;58876;51.994;4.472;2022-07-09T06:42:25;20.58;71.79
71175;DHT22;58876;51.994;4.472;2022-07-09T06:44:53;20.53;71.63
71175;DHT22;58876;51.994;4.472;2022-07-09T06:47:18;20.62;71.73
71175;DHT22;58876;51.994;4.472;2022-07-09T06:49:44;20.75;71.49
71175;DHT22;58876;51.994;4.472;2022-07-09T06:52:09;20.96;70.86
71175;DHT22;58876;51.994;4.472;2022-07-09T06:54:35;21.08;69.69
71175;DHT22;58876;51.994;4.472;2022-07-09T06:57:02;20.93;70.80
71175;DHT22;58876;51.994;4.472;2022-07-09T06:59:28;20.95;70.43
71175;DHT22;58876;51.994;4.472;2022-07-09T07:01:54;21.24;69.45
71175;DHT22;58876;51.994;4.472;2022-07-09T07:04:20;21.03;69.55
71175;DHT22;58876;51.994;4.472;2022-07-09T07:06:46;20.93;69.79
71175;DHT22;58876;51.994;4.472;2022-07-09T07:09:15;21.24;69.36
71175;DHT22;58876;51.994;4.472;2022-07-09T07:11:50;21.26;68.80
71175;DHT22;58876;51.994;4.472;2022-07-09T07:14:17;21.43;68.40
71175;DHT22;58876;51.994;4.472;2022-07-09T07:16:43;21.41;67.90
71175;DHT22;58876;51.994;4.472;2022-07-09T07:19:10;21.57;67.73
71175;DHT22;58876;51.994;4.472;2022-07-09T07:21:36;21.62;67.29
71175;DHT22;58876;51.994;4.472;2022-07-09T07:24:02;21.31;67.98
71175;DHT22;58876;51.994;4.472;2022-07-09T07:26:28;21.20;68.42
71175;DHT22;58876;51.994;4.472;2022-07-09T07:28:54;21.19;68.91
71175;DHT22;58876;51.994;4.472;2022-07-09T07:31:19;21.22;68.82
71175;DHT22;58876;51.994;4.472;2022-07-09T07:33:45;21.40;67.87
71175;DHT22;58876;51.994;4.472;2022-07-09T07:36:10;21.47;67.76
71175;DHT22;58876;51.994;4.472;2022-07-09T07:38:36;21.33;68.22
71175;DHT22;58876;51.994;4.472;2022-07-09T07:41:01;21.03;68.97
71175;DHT22;58876;51.994;4.472;2022-07-09T07:43:27;20.66;69.78
71175;DHT22;58876;51.994;4.472;2022-07-09T07:45:52;20.69;69.99
71175;DHT22;58876;51.994;4.472;2022-07-09T07:48:18;20.85;69.50
71175;DHT22;58876;51.994;4.472;2022-07-09T07:50:43;20.71;69.68
71175;DHT22;58876;51.994;4.472;2022-07-09T07:53:09;20.79;69.49
71175;DHT22;58876;51.994;4.472;2022-07-09T07:55:35;20.80;68.35
71175;DHT22;58876;51.994;4.472;2022-07-09T07:58:01;20.92;68.58
71175;DHT22;58876;51.994;4.472;2022-07-09T08:00:27;20.76;68.58
71175;DHT22;58876;51.994;4.472;2022-07-09T08:02:52;20.75;68.28
71175;DHT22;58876;51.994;4.472;2022-07-09T08:05:19;20.87;68.17
71175;DHT22;58876;51.994;4.472;2022-07-09T08:07:44;20.96;67.61
71175;DHT22;58876;51.994;4.472;2022-07-09T08:10:10;21.28;66.96
71175;DHT22;58876;51.994;4.472;2022-07-09T08:12:35;21.45;66.05
71175;DHT22;58876;51.994;4.472;2022-07-09T08:15:00;21.11;66.78
71175;DHT22;58876;51.994;4.472;2022-07-09T08:17:26;21.20;66.57
71175;DHT22;58876;51.994;4.472;2022-07-09T08:19:52;21.07;66.42
71175;DHT22;58876;51.994;4.472;2022-07-09T08:22:18;21.33;65.96
71175;DHT22;58876;51.994;4.472;2022-07-09T08:24:44;21.95;64.51
71175;DHT22;58876;51.994;4.472;2022-07-09T08:27:09;21.96;63.29
71175;DHT22;58876;51.994;4.472;2022-07-09T08:29:35;22.54;62.57
71175;DHT22;58876;51.994;4.472;2022-07-09T08:32:01;22.77;61.17
71175;DHT22;58876;51.994;4.472;2022-07-09T08:34:30;23.39;59.76
71175;DHT22;58876;51.994;4.472;2022-07-09T08:36:56;23.32;59.70
71175;DHT22;58876;51.994;4.472;2022-07-09T08:39:21;23.33;59.45
71175;DHT22;58876;51.994;4.472;2022-07-09T08:41:47;23.66;57.34
71175;DHT22;58876;51.994;4.472;2022-07-09T08:44:12;23.70;57.33
71175;DHT22;58876;51.994;4.472;2022-07-09T08:46:39;23.99;56.92
71175;DHT22;58876;51.994;4.472;2022-07-09T08:49:06;24.21;55.92
71175;DHT22;58876;51.994;4.472;2022-07-09T08:51:41;24.59;54.20
71175;DHT22;58876;51.994;4.472;2022-07-09T08:54:08;24.38;56.13
71175;DHT22;58876;51.994;4.472;2022-07-09T08:56:34;24.83;54.11
71175;DHT22;58876;51.994;4.472;2022-07-09T08:59:07;25.26;52.32
71175;DHT22;58876;51.994;4.472;2022-07-09T09:01:32;24.89;52.84
71175;DHT22;58876;51.994;4.472;2022-07-09T09:04:02;25.06;52.80
71175;DHT22;58876;51.994;4.472;2022-07-09T09:06:27;24.98;52.77
71175;DHT22;58876;51.994;4.472;2022-07-09T09:08:54;25.27;52.12
71175;DHT22;58876;51.994;4.472;2022-07-09T09:11:23;24.95;53.17
71175;DHT22;58876;51.994;4.472;2022-07-09T09:14:03;24.10;54.59
71175;DHT22;58876;51.994;4.472;2022-07-09T09:16:31;23.76;56.68
71175;DHT22;58876;51.994;4.472;2022-07-09T09:19:08;23.94;54.49
71175;DHT22;58876;51.994;4.472;2022-07-09T09:21:37;24.07;54.55
71175;DHT22;58876;51.994;4.472;2022-07-09T09:24:07;24.32;52.20
71175;DHT22;58876;51.994;4.472;2022-07-09T09:26:36;24.38;52.06
71175;DHT22;58876;51.994;4.472;2022-07-09T09:29:05;24.14;52.90
71175;DHT22;58876;51.994;4.472;2022-07-09T09:31:35;23.53;52.84
71175;DHT22;58876;51.994;4.472;2022-07-09T09:34:14;23.46;51.66
71175;DHT22;58876;51.994;4.472;2022-07-09T09:36:40;23.63;51.59
71175;DHT22;58876;51.994;4.472;2022-07-09T09:39:26;24.31;51.31
71175;DHT22;58876;51.994;4.472;2022-07-09T09:42:03;24.07;50.43
71175;DHT22;58876;51.994;4.472;2022-07-09T09:47:49;23.74;51.11
71175;DHT22;58876;51.994;4.472;2022-07-09T09:50:20;23.76;50.86
71175;DHT22;58876;51.994;4.472;2022-07-09T09:53:08;23.59;51.23
71175;DHT22;58876;51.994;4.472;2022-07-09T09:55:42;23.28;52.31
71175;DHT22;58876;51.994;4.472;2022-07-09T09:58:21;23.08;51.83
71175;DHT22;58876;51.994;4.472;2022-07-09T10:09:59;23.53;51.23
71175;DHT22;58876;51.994;4.472;2022-07-09T10:12:29;23.00;50.90
71175;DHT22;58876;51.994;4.472;2022-07-09T10:14:55;23.26;49.91
71175;DHT22;58876;51.994;4.472;2022-07-09T10:17:25;23.67;49.96
71175;DHT22;58876;51.994;4.472;2022-07-09T10:20:15;24.21;48.16
71175;DHT22;58876;51.994;4.472;2022-07-09T10:23:00;23.92;48.57
71175;DHT22;58876;51.994;4.472;2022-07-09T10:25:44;23.23;51.57
71175;DHT22;58876;51.994;4.472;2022-07-09T10:28:40;23.31;50.60
71175;DHT22;58876;51.994;4.472;2022-07-09T10:31:08;23.58;50.10
71175;DHT22;58876;51.994;4.472;2022-07-09T10:33:35;23.10;51.61
71175;DHT22;58876;51.994;4.472;2022-07-09T10:36:13;22.29;54.39
71175;DHT22;58876;51.994;4.472;2022-07-09T10:38:39;22.63;53.64
71175;DHT22;58876;51.994;4.472;2022-07-09T10:41:04;22.80;53.11
71175;DHT22;58876;51.994;4.472;2022-07-09T10:43:59;22.59;52.98
71175;DHT22;58876;51.994;4.472;2022-07-09T10:46:25;22.67;53.77
71175;DHT22;58876;51.994;4.472;2022-07-09T10:48:51;23.25;53.53
71175;DHT22;58876;51.994;4.472;2022-07-09T10:51:26;22.92;53.85
71175;DHT22;58876;51.994;4.472;2022-07-09T10:53:55;22.22;56.68
71175;DHT22;58876;51.994;4.472;2022-07-09T10:56:34;21.88;58.74
71175;DHT22;58876;51.994;4.472;2022-07-09T10:59:03;21.75;58.08
71175;DHT22;58876;51.994;4.472;2022-07-09T11:01:39;21.85;59.26
71175;DHT22;58876;51.994;4.472;2022-07-09T11:04:07;21.98;58.76
71175;DHT22;58876;51.994;4.472;2022-07-09T11:06:48;21.99;57.40
71175;DHT22;58876;51.994;4.472;2022-07-09T11:09:14;22.15;57.36
71175;DHT22;58876;51.994;4.472;2022-07-09T11:11:44;21.71;57.67
71175;DHT22;58876;51.994;4.472;2022-07-09T11:14:13;21.62;57.22
71175;DHT22;58876;51.994;4.472;2022-07-09T11:16:39;21.86;56.16
71175;DHT22;58876;51.994;4.472;2022-07-09T11:19:15;22.52;55.80
71175;DHT22;58876;51.994;4.472;2022-07-09T11:21:41;22.61;55.08
71175;DHT22;58876;51.994;4.472;2022-07-09T11:24:18;22.88;54.49
71175;DHT22;58876;51.994;4.472;2022-07-09T11:26:50;22.22;55.72
71175;DHT22;58876;51.994;4.472;2022-07-09T11:29:18;22.20;56.05
71175;DHT22;58876;51.994;4.472;2022-07-09T11:31:50;22.16;56.44
71175;DHT22;58876;51.994;4.472;2022-07-09T11:34:49;22.83;53.88
71175;DHT22;58876;51.994;4.472;2022-07-09T11:37:22;22.56;55.35
71175;DHT22;58876;51.994;4.472;2022-07-09T11:39:51;22.60;54.80
71175;DHT22;58876;51.994;4.472;2022-07-09T11:42:18;22.43;54.03
71175;DHT22;58876;51.994;4.472;2022-07-09T11:44:57;22.25;54.86
71175;DHT22;58876;51.994;4.472;2022-07-09T11:47:38;22.53;54.58
71175;DHT22;58876;51.994;4.472;2022-07-09T11:50:08;22.40;54.91
71175;DHT22;58876;51.994;4.472;2022-07-09T11:52:35;22.77;54.21
71175;DHT22;58876;51.994;4.472;2022-07-09T12:08:06;23.72;50.87
71175;DHT22;58876;51.994;4.472;2022-07-09T12:10:38;23.56;51.63
71175;DHT22;58876;51.994;4.472;2022-07-09T12:13:06;23.66;52.36
71175;DHT22;58876;51.994;4.472;2022-07-09T12:15:36;23.26;52.55
71175;DHT22;58876;51.994;4.472;2022-07-09T12:18:02;23.38;52.05
71175;DHT22;58876;51.994;4.472;2022-07-09T12:20:30;23.69;51.47
71175;DHT22;58876;51.994;4.472;2022-07-09T12:22:57;23.23;52.83
71175;DHT22;58876;51.994;4.472;2022-07-09T12:25:23;22.95;55.01
71175;DHT22;58876;51.994;4.472;2022-07-09T12:27:49;22.36;56.14
71175;DHT22;58876;51.994;4.472;2022-07-09T12:30:16;22.74;55.35
71175;DHT22;58876;51.994;4.472;2022-07-09T12:32:41;23.01;54.47
71175;DHT22;58876;51.994;4.472;2022-07-09T12:35:09;23.07;54.00
71175;DHT22;58876;51.994;4.472;2022-07-09T12:37:35;23.18;53.42
71175;DHT22;58876;51.994;4.472;2022-07-09T12:40:01;23.48;53.78
71175;DHT22;58876;51.994;4.472;2022-07-09T12:42:27;24.03;51.78
71175;DHT22;58876;51.994;4.472;2022-07-09T12:44:52;24.30;50.28
71175;DHT22;58876;51.994;4.472;2022-07-09T12:47:18;24.25;50.86
71175;DHT22;58876;51.994;4.472;2022-07-09T12:49:44;24.06;50.65
71175;DHT22;58876;51.994;4.472;2022-07-09T12:52:10;23.94;52.21
71175;DHT22;58876;51.994;4.472;2022-07-09T12:54:35;23.83;53.06
71175;DHT22;58876;51.994;4.472;2022-07-09T12:57:01;24.03;52.19
71175;DHT22;58876;51.994;4.472;2022-07-09T12:59:27;24.09;51.99
71175;DHT22;58876;51.994;4.472;2022-07-09T13:01:52;24.18;49.70
71175;DHT22;58876;51.994;4.472;2022-07-09T13:04:17;24.00;51.87
71175;DHT22;58876;51.994;4.472;2022-07-09T13:06:43;24.34;51.90
71175;DHT22;58876;51.994;4.472;2022-07-09T13:09:10;24.44;49.92
71175;DHT22;58876;51.994;4.472;2022-07-09T13:11:37;24.58;50.41
71175;DHT22;58876;51.994;4.472;2022-07-09T13:14:03;24.30;50.16
71175;DHT22;58876;51.994;4.472;2022-07-09T13:16:29;24.28;50.46
71175;DHT22;58876;51.994;4.472;2022-07-09T13:18:55;24.25;49.57
71175;DHT22;58876;51.994;4.472;2022-07-09T13:21:21;23.83;50.06
71175;DHT22;58876;51.994;4.472;2022-07-09T13:23:49;24.25;50.34
71175;DHT22;58876;51.994;4.472;2022-07-09T13:26:16;23.86;51.44
71175;DHT22;58876;51.994;4.472;2022-07-09T13:28:42;23.51;53.18
71175;DHT22;58876;51.994;4.472;2022-07-09T13:31:09;23.65;52.52
71175;DHT22;58876;51.994;4.472;2022-07-09T13:33:35;23.90;53.43
71175;DHT22;58876;51.994;4.472;2022-07-09T13:36:02;23.87;53.98
71175;DHT22;58876;51.994;4.472;2022-07-09T13:38:29;23.87;53.35
71175;DHT22;58876;51.994;4.472;2022-07-09T13:40:55;24.24;52.80
71175;DHT22;58876;51.994;4.472;2022-07-09T13:43:21;23.43;54.53
71175;DHT22;58876;51.994;4.472;2022-07-09T13:45:49;23.89;54.22
71175;DHT22;58876;51.994;4.472;2022-07-09T13:48:15;24.52;52.36
71175;DHT22;58876;51.994;4.472;2022-07-09T13:50:40;24.34;51.82
71175;DHT22;58876;51.994;4.472;2022-07-09T13:53:06;23.81;52.96
71175;DHT22;58876;51.994;4.472;2022-07-09T13:55:31;23.89;53.28
71175;DHT22;58876;51.994;4.472;2022-07-09T13:57:57;23.81;53.98
71175;DHT22;58876;51.994;4.472;2022-07-09T14:00:22;23.62;54.95
71175;DHT22;58876;51.994;4.472;2022-07-09T14:02:48;23.49;56.02
71175;DHT22;58876;51.994;4.472;2022-07-09T14:05:14;23.52;56.52
71175;DHT22;58876;51.994;4.472;2022-07-09T14:07:40;23.59;55.81
71175;DHT22;58876;51.994;4.472;2022-07-09T14:10:06;23.41;56.37
71175;DHT22;58876;51.994;4.472;2022-07-09T14:12:32;23.58;54.49
71175;DHT22;58876;51.994;4.472;2022-07-09T14:14:59;23.35;55.52
71175;DHT22;58876;51.994;4.472;2022-07-09T14:17:27;23.77;54.16
71175;DHT22;58876;51.994;4.472;2022-07-09T14:19:53;23.81;53.22
71175;DHT22;58876;51.994;4.472;2022-07-09T14:22:21;23.86;52.52
71175;DHT22;58876;51.994;4.472;2022-07-09T14:24:46;24.18;52.24
71175;DHT22;58876;51.994;4.472;2022-07-09T14:27:12;23.93;52.88
71175;DHT22;58876;51.994;4.472;2022-07-09T14:29:40;23.45;52.50
71175;DHT22;58876;51.994;4.472;2022-07-09T14:32:05;23.16;54.04
71175;DHT22;58876;51.994;4.472;2022-07-09T14:34:33;23.33;53.19
71175;DHT22;58876;51.994;4.472;2022-07-09T14:36:58;23.58;52.70
71175;DHT22;58876;51.994;4.472;2022-07-09T14:39:24;23.49;52.54
71175;DHT22;58876;51.994;4.472;2022-07-09T14:41:49;23.48;52.38
71175;DHT22;58876;51.994;4.472;2022-07-09T14:47:18;23.05;52.42
71175;DHT22;58876;51.994;4.472;2022-07-09T14:49:47;23.81;51.40
71175;DHT22;58876;51.994;4.472;2022-07-09T14:52:43;23.94;50.77
71175;DHT22;58876;51.994;4.472;2022-07-09T14:59:23;23.60;50.68
71175;DHT22;58876;51.994;4.472;2022-07-09T15:01:59;23.67;49.41
71175;DHT22;58876;51.994;4.472;2022-07-09T15:04:25;23.38;48.62
71175;DHT22;58876;51.994;4.472;2022-07-09T15:06:50;23.59;49.41
71175;DHT22;58876;51.994;4.472;2022-07-09T15:09:16;23.28;48.89
71175;DHT22;58876;51.994;4.472;2022-07-09T15:11:42;23.04;47.34
71175;DHT22;58876;51.994;4.472;2022-07-09T15:14:07;22.92;48.17
71175;DHT22;58876;51.994;4.472;2022-07-09T15:16:33;23.22;47.59
71175;DHT22;58876;51.994;4.472;2022-07-09T15:18:58;22.92;45.23
71175;DHT22;58876;51.994;4.472;2022-07-09T15:21:24;22.92;48.39
71175;DHT22;58876;51.994;4.472;2022-07-09T15:23:53;22.87;47.50
71175;DHT22;58876;51.994;4.472;2022-07-09T15:26:19;22.88;49.62
71175;DHT22;58876;51.994;4.472;2022-07-09T15:28:44;23.19;48.74
71175;DHT22;58876;51.994;4.472;2022-07-09T15:31:10;23.58;47.49
71175;DHT22;58876;51.994;4.472;2022-07-09T15:33:35;23.12;49.05
71175;DHT22;58876;51.994;4.472;2022-07-09T15:36:01;23.48;48.97
71175;DHT22;58876;51.994;4.472;2022-07-09T15:38:26;23.90;48.52
71175;DHT22;58876;51.994;4.472;2022-07-09T15:40:52;23.99;47.50
71175;DHT22;58876;51.994;4.472;2022-07-09T15:43:17;23.72;47.35
71175;DHT22;58876;51.994;4.472;2022-07-09T15:45:43;23.23;49.08
71175;DHT22;58876;51.994;4.472;2022-07-09T15:48:10;23.19;49.16
71175;DHT22;58876;51.994;4.472;2022-07-09T15:50:35;23.01;49.87
71175;DHT22;58876;51.994;4.472;2022-07-09T15:53:01;23.23;49.13
71175;DHT22;58876;51.994;4.472;2022-07-09T15:55:28;23.77;48.21
71175;DHT22;58876;51.994;4.472;2022-07-09T15:57:53;24.11;47.26
71175;DHT22;58876;51.994;4.472;2022-07-09T16:00:18;23.93;47.55
71175;DHT22;58876;51.994;4.472;2022-07-09T16:02:50;23.60;47.79